Time;durP1;ratioP1;P1;durP2;ratioP2;P2;SDS_P1;SDS_P2;PMS_P1;PMS_P2;Temp;Humidity;BMP_temperature;BMP_pressure;BME280_temperature;BME280_humidity;BME280_pressure;Samples;Min_cycle;Max_cycle;Signal;HPM_P1;HPM_P2
2023/04/05 00:01:12;;;;;;;13.90;8.73;;;;;;;-146.27;49.26;83579.59;5079364;28;20051;-67
2023/04/05 00:03:38;;;;;;;20.25;9.68;;;;;;;-146.27;49.89;83549.47;5090089;28;20077;-67
2023/04/05 00:06:04;;;;;;;15.88;9.00;;;;;;;-146.27;50.08;83529.38;5093221;28;20027;-66
2023/04/05 00:08:30;;;;;;;14.90;9.38;;;;;;;-146.27;49.49;83537.41;5088961;28;20032;-68
2023/04/05 00:10:58;;;;;;;13.65;8.95;;;;;;;-146.27;49.34;83537.41;5080438;28;20041;-68
2023/04/05 00:13:24;;;;;;;16.52;8.50;;;;;;;-146.27;48.65;83559.50;5086694;28;20036;-67
2023/04/05 00:15:50;;;;;;;24.45;9.77;;;;;;;-146.27;49.10;83565.53;5092531;28;20020;-67
2023/04/05 00:18:22;;;;;;;14.32;8.38;;;;;;;-146.27;49.49;83537.41;5089378;28;20089;-67
2023/04/05 00:20:50;;;;;;;17.80;9.10;;;;;;;-146.27;49.26;83569.56;5090660;28;20021;-68
2023/04/05 00:23:16;;;;;;;16.85;9.25;;;;;;;-146.27;49.96;83537.41;5087007;28;20479;-68
2023/04/05 00:25:43;;;;;;;17.27;9.55;;;;;;;-146.27;50.20;83533.38;5081358;28;20349;-68
2023/04/05 00:28:09;;;;;;;17.25;9.40;;;;;;;-146.27;49.42;83549.47;5084148;28;20024;-67
2023/04/05 00:30:35;;;;;;;16.50;8.30;;;;;;;-146.27;49.50;83557.50;5081009;28;20111;-67
2023/04/05 00:33:00;;;;;;;19.73;9.70;;;;;;;-146.27;49.54;83537.41;5084975;28;20122;-68
2023/04/05 00:35:27;;;;;;;19.35;10.95;;;;;;;-146.27;49.56;83509.28;5092281;28;20032;-68
2023/04/05 00:37:52;;;;;;;15.68;9.32;;;;;;;-146.27;49.07;83489.19;5080735;28;20062;-67
2023/04/05 00:40:17;;;;;;;12.98;8.65;;;;;;;-146.27;49.24;83553.47;5093304;28;20052;-69
2023/04/05 00:42:43;;;;;;;15.65;8.80;;;;;;;-146.27;49.53;83501.22;5079328;28;20038;-67
2023/04/05 00:45:08;;;;;;;16.50;9.52;;;;;;;-146.27;50.20;83553.47;5085195;28;20024;-67
2023/04/05 00:47:34;;;;;;;13.23;8.70;;;;;;;-146.27;49.67;83559.50;5085779;28;20036;-67
2023/04/05 00:50:00;;;;;;;15.60;8.98;;;;;;;-146.27;49.80;83537.41;5087166;28;20368;-67
2023/04/05 00:52:26;;;;;;;21.05;9.15;;;;;;;-146.27;49.88;83623.81;5088856;28;20048;-65
2023/04/05 00:54:52;;;;;;;18.15;9.40;;;;;;;-146.27;49.38;83575.59;5094301;28;20028;-66
2023/04/05 00:57:18;;;;;;;13.18;8.40;;;;;;;-146.27;49.58;83567.53;5080854;28;20063;-68
2023/04/05 00:59:44;;;;;;;16.58;9.07;;;;;;;-146.27;49.74;83605.72;5085926;28;20028;-68
2023/04/05 01:02:19;;;;;;;19.42;9.60;;;;;;;-146.27;49.72;83625.81;5090186;28;21671;-69
2023/04/05 01:04:50;;;;;;;19.63;9.38;;;;;;;-146.27;50.05;83615.78;5078023;28;20089;-66
2023/04/05 01:07:27;;;;;;;12.05;8.70;;;;;;;-146.27;50.20;83603.72;5077847;28;20052;-67
2023/04/05 01:09:58;;;;;;;16.65;9.20;;;;;;;-146.27;50.82;83623.81;5088854;28;20399;-68
2023/04/05 01:12:30;;;;;;;15.52;9.73;;;;;;;-146.27;50.80;83676.06;5079254;28;20031;-68
2023/04/05 01:14:56;;;;;;;16.30;8.82;;;;;;;-146.27;50.70;83653.94;5089989;28;20498;-67
2023/04/05 01:17:26;;;;;;;18.20;9.18;;;;;;;-146.27;50.74;83686.09;5081656;28;20020;-68
2023/04/05 01:20:01;;;;;;;17.60;9.43;;;;;;;-146.27;50.42;83690.13;5078406;28;20016;-67
2023/04/05 01:22:47;;;;;;;15.70;9.15;;;;;;;-146.27;50.67;83674.03;5088253;28;20062;-68
2023/04/05 01:25:40;;;;;;;14.52;8.45;;;;;;;-146.27;50.65;83710.22;5081123;28;20054;-67
2023/04/05 01:28:08;;;;;;;13.18;9.13;;;;;;;-146.27;50.70;83670.03;5084851;28;20082;-68
2023/04/05 01:30:43;;;;;;;14.70;9.10;;;;;;;-146.27;51.07;83688.09;5077352;28;20083;-68
2023/04/05 01:33:08;;;;;;;16.25;8.88;;;;;;;-146.27;50.69;83694.13;5086126;28;20031;-68
2023/04/05 01:35:57;;;;;;;17.95;9.55;;;;;;;-146.27;50.94;83682.09;5083711;28;20027;-68
2023/04/05 01:38:26;;;;;;;16.75;9.68;;;;;;;-146.27;50.76;83720.25;5079500;28;20051;-68
2023/04/05 01:40:52;;;;;;;17.98;9.45;;;;;;;-146.27;51.78;83718.25;5078967;28;20074;-68
2023/04/05 01:43:18;;;;;;;15.73;9.90;;;;;;;-146.27;51.90;83730.31;5083042;28;20026;-68
2023/04/05 01:45:45;;;;;;;17.02;9.30;;;;;;;-146.27;51.65;83726.28;5078505;28;20024;-67
2023/04/05 01:48:11;;;;;;;16.05;9.32;;;;;;;-146.27;51.52;83686.09;5083115;28;20071;-67
2023/04/05 01:50:36;;;;;;;13.88;8.93;;;;;;;-146.27;51.66;83728.31;5077375;28;20024;-67
2023/04/05 01:53:02;;;;;;;16.38;9.80;;;;;;;-146.27;51.86;83732.31;5082506;28;20430;-68
2023/04/05 01:55:27;;;;;;;15.32;9.07;;;;;;;-146.27;51.14;83756.44;5077657;28;20033;-67
2023/04/05 01:57:54;;;;;;;16.25;9.45;;;;;;;-146.27;51.69;83740.34;5073618;28;20024;-68
2023/04/05 02:00:20;;;;;;;17.25;9.32;;;;;;;-146.27;52.38;83752.41;5080718;28;20024;-67
2023/04/05 02:02:46;;;;;;;16.42;9.13;;;;;;;-146.27;52.69;83742.38;5083745;28;20057;-67
2023/04/05 02:05:11;;;;;;;15.70;8.88;;;;;;;-146.27;52.47;83734.31;5087611;28;20081;-67
2023/04/05 02:07:36;;;;;;;14.80;9.38;;;;;;;-146.27;51.75;83774.53;5091607;28;20040;-67
2023/04/05 02:10:02;;;;;;;18.55;9.30;;;;;;;-146.27;52.14;83752.41;5092453;28;20043;-68
2023/04/05 02:12:27;;;;;;;18.13;11.05;;;;;;;-146.27;51.65;83770.50;5082412;28;20120;-68
2023/04/05 02:14:53;;;;;;;25.85;15.48;;;;;;;-146.27;51.92;83784.56;5085960;28;20024;-67
2023/04/05 02:17:18;;;;;;;18.40;11.43;;;;;;;-146.27;51.63;83742.38;5086634;28;20036;-68
2023/04/05 02:19:45;;;;;;;15.50;9.20;;;;;;;-146.27;50.65;83796.63;5096711;28;20008;-68
2023/04/05 02:22:10;;;;;;;16.33;9.18;;;;;;;-146.27;51.39;83778.53;5090249;28;20460;-68
2023/04/05 02:24:36;;;;;;;19.10;10.25;;;;;;;-146.27;51.92;83802.66;5092629;28;20032;-67
2023/04/05 02:27:01;;;;;;;14.60;9.63;;;;;;;-146.27;52.13;83778.53;5090774;28;20023;-67
2023/04/05 02:29:27;;;;;;;17.85;10.13;;;;;;;-146.27;51.60;83738.34;5093357;28;20523;-68
2023/04/05 02:31:53;;;;;;;14.18;9.20;;;;;;;-146.27;51.45;83756.44;5095218;28;20026;-68
2023/04/05 02:34:18;;;;;;;17.00;9.88;;;;;;;-146.27;51.95;83780.53;5081692;28;20030;-67
2023/04/05 02:36:44;;;;;;;16.42;10.10;;;;;;;-146.27;52.02;83786.56;5090619;28;20024;-68
2023/04/05 02:39:09;;;;;;;18.80;9.93;;;;;;;-146.27;51.57;83806.66;5088329;28;20032;-67
2023/04/05 02:41:35;;;;;;;14.38;8.65;;;;;;;-146.27;51.27;83718.25;5091656;28;20024;-67
2023/04/05 02:44:01;;;;;;;15.82;8.70;;;;;;;-146.27;51.35;83784.56;5076894;28;20040;-67
2023/04/05 02:46:26;;;;;;;13.75;8.60;;;;;;;-146.27;52.22;83826.75;5089709;28;20031;-68
2023/04/05 02:48:52;;;;;;;15.13;8.32;;;;;;;-146.27;52.29;83798.63;5089237;28;20027;-67
2023/04/05 02:51:17;;;;;;;15.63;8.80;;;;;;;-146.27;52.30;83806.66;5088478;28;20039;-68
2023/04/05 02:53:43;;;;;;;16.38;9.18;;;;;;;-146.27;51.69;83798.63;5092397;28;20525;-68
2023/04/05 02:56:12;;;;;;;14.57;8.68;;;;;;;-146.27;52.44;83786.56;5087221;28;20039;-67
2023/04/05 02:58:38;;;;;;;14.98;8.60;;;;;;;-146.27;52.16;83850.88;5088987;28;20415;-68
2023/04/05 03:01:06;;;;;;;17.15;9.07;;;;;;;-146.27;55.62;83854.91;5091961;28;20024;-67
2023/04/05 03:03:33;;;;;;;13.80;8.55;;;;;;;-146.27;52.27;83830.78;5093898;28;20074;-68
2023/04/05 03:06:08;;;;;;;13.95;8.45;;;;;;;-146.27;51.97;83830.78;5077604;28;20028;-67
2023/04/05 03:08:37;;;;;;;17.05;8.50;;;;;;;-146.27;52.22;83854.91;5090752;28;20111;-68
2023/04/05 03:11:06;;;;;;;12.77;8.63;;;;;;;-146.27;52.48;83862.94;5084574;28;20380;-68
2023/04/05 03:13:32;;;;;;;13.25;7.53;;;;;;;-146.27;51.69;83832.78;5091963;28;20098;-67
2023/04/05 03:15:57;;;;;;;12.48;7.22;;;;;;;-146.27;52.04;83818.72;5082082;28;20035;-68
2023/04/05 03:18:24;;;;;;;17.25;8.57;;;;;;;-146.27;52.53;83834.81;5087338;28;20036;-68
2023/04/05 03:20:55;;;;;;;14.55;7.93;;;;;;;-146.27;52.34;83887.06;5082436;28;20025;-67
2023/04/05 03:23:25;;;;;;;15.30;8.75;;;;;;;-146.27;52.54;83838.81;5092732;28;20032;-67
2023/04/05 03:25:53;;;;;;;13.05;8.63;;;;;;;-146.27;52.43;83891.06;5090561;28;20032;-68
2023/04/05 03:28:19;;;;;;;15.25;8.98;;;;;;;-146.27;53.25;83879.00;5078917;28;20488;-68
2023/04/05 03:30:44;;;;;;;14.93;8.35;;;;;;;-146.27;53.09;83899.09;5093199;28;20024;-68
2023/04/05 03:33:10;;;;;;;17.70;9.63;;;;;;;-146.27;52.74;83858.91;5084140;28;20024;-68
2023/04/05 03:35:36;;;;;;;15.10;8.02;;;;;;;-146.27;53.40;83860.94;5089595;28;20103;-68
2023/04/05 03:38:01;;;;;;;13.45;7.88;;;;;;;-146.27;53.07;83931.25;5087498;28;20016;-68
2023/04/05 03:40:26;;;;;;;13.43;7.97;;;;;;;-146.27;53.24;83862.94;5085509;28;20024;-67
2023/04/05 03:42:52;;;;;;;18.17;8.23;;;;;;;-146.27;53.29;83921.22;5081160;28;20507;-67
2023/04/05 03:45:18;;;;;;;19.85;8.18;;;;;;;-146.27;53.62;83875.00;5080133;28;20113;-67
2023/04/05 03:47:43;;;;;;;12.13;7.80;;;;;;;-146.27;53.81;83929.25;5084258;28;20043;-67
2023/04/05 03:50:09;;;;;;;12.77;7.78;;;;;;;-146.27;53.38;83879.00;5082035;28;20036;-68
2023/04/05 03:52:35;;;;;;;13.68;7.85;;;;;;;-146.27;53.01;83911.16;5080123;28;20028;-67
2023/04/05 03:55:00;;;;;;;10.80;7.57;;;;;;;-146.27;52.84;83907.16;5089823;28;20028;-68
2023/04/05 03:57:29;;;;;;;12.73;7.63;;;;;;;-146.27;51.55;83875.00;5076997;28;20476;-67
2023/04/05 03:59:55;;;;;;;14.50;7.68;;;;;;;-146.27;51.88;83905.13;5088466;28;20020;-67
2023/04/05 04:02:21;;;;;;;19.35;8.48;;;;;;;-146.27;52.92;83913.19;5087814;28;20031;-68
2023/04/05 04:04:46;;;;;;;12.70;7.43;;;;;;;-146.27;52.46;83941.31;5090043;28;20523;-68
2023/04/05 04:07:13;;;;;;;12.57;7.50;;;;;;;-146.27;53.65;83907.16;5088381;28;20041;-68
2023/04/05 04:09:38;;;;;;;16.17;8.63;;;;;;;-146.27;54.97;83915.19;5091394;28;20373;-66
2023/04/05 04:12:04;;;;;;;17.70;8.63;;;;;;;-146.27;53.77;83965.44;5090877;28;20035;-67
2023/04/05 04:14:29;;;;;;;13.30;7.90;;;;;;;-146.27;52.75;83911.16;5083673;28;20031;-68
2023/04/05 04:16:55;;;;;;;14.77;7.57;;;;;;;-146.27;52.50;83915.19;5079719;28;20027;-67
2023/04/05 04:19:20;;;;;;;13.75;7.35;;;;;;;-146.27;52.87;83919.19;5078007;28;20093;-68
2023/04/05 04:21:50;;;;;;;15.35;7.47;;;;;;;-146.27;52.65;83937.28;5082629;28;20051;-67
2023/04/05 04:24:19;;;;;;;14.27;7.63;;;;;;;-146.27;52.62;83893.06;5085570;28;20020;-67
2023/04/05 04:26:45;;;;;;;14.50;7.85;;;;;;;-146.27;52.85;84003.59;5086931;28;20016;-68
2023/04/05 04:29:17;;;;;;;13.50;7.50;;;;;;;-146.27;51.95;83875.00;5092407;28;20063;-68
2023/04/05 04:31:45;;;;;;;12.65;7.15;;;;;;;-146.27;52.10;83889.06;5091973;28;20116;-67
2023/04/05 04:34:13;;;;;;;11.93;7.60;;;;;;;-146.27;52.49;83919.19;5092349;28;20024;-68
2023/04/05 04:36:41;;;;;;;18.30;8.73;;;;;;;-146.27;52.42;83903.13;5086930;28;20481;-67
2023/04/05 04:39:07;;;;;;;15.50;7.32;;;;;;;-146.27;52.12;83905.13;5083277;28;20035;-67
2023/04/05 04:41:34;;;;;;;17.90;8.90;;;;;;;-146.27;52.70;83955.38;5083325;28;20028;-67
2023/04/05 04:44:02;;;;;;;15.45;7.65;;;;;;;-146.27;53.08;83935.28;5084326;28;20361;-67
2023/04/05 04:46:29;;;;;;;13.23;7.78;;;;;;;-146.27;53.00;83939.31;5084714;28;20475;-68
2023/04/05 04:48:56;;;;;;;15.27;7.40;;;;;;;-146.27;52.93;83925.22;5085056;28;20027;-68
2023/04/05 04:51:22;;;;;;;12.63;7.80;;;;;;;-146.27;53.29;83941.31;5083491;28;20024;-68
2023/04/05 04:53:47;;;;;;;13.88;7.72;;;;;;;-146.27;53.01;83983.50;5085256;28;20020;-68
2023/04/05 04:56:12;;;;;;;13.18;7.43;;;;;;;-146.27;52.31;83959.41;5084311;28;20089;-68
2023/04/05 04:58:38;;;;;;;17.27;7.65;;;;;;;-146.27;52.37;83945.31;5084947;28;20028;-68
2023/04/05 05:01:08;;;;;;;15.88;7.45;;;;;;;-146.27;52.53;83963.41;5082162;28;20967;-68
2023/04/05 05:03:35;;;;;;;13.82;7.30;;;;;;;-146.27;52.45;83935.28;5083123;28;20126;-67
2023/04/05 05:06:02;;;;;;;14.68;7.38;;;;;;;-146.27;52.56;83963.41;5085602;28;20035;-67
2023/04/05 05:08:27;;;;;;;15.13;8.18;;;;;;;-146.27;51.78;83959.41;5084591;28;20127;-68
2023/04/05 05:10:52;;;;;;;16.25;8.30;;;;;;;-146.27;52.33;83979.50;5084963;28;20068;-68
2023/04/05 05:13:18;;;;;;;18.23;8.13;;;;;;;-146.27;52.36;83959.41;5087732;28;20020;-67
2023/04/05 05:15:43;;;;;;;15.02;7.85;;;;;;;-146.27;53.04;83971.47;5084828;28;20077;-67
2023/04/05 05:18:09;;;;;;;16.00;8.63;;;;;;;-146.27;52.91;83971.47;5077797;28;20063;-67
2023/04/05 05:20:35;;;;;;;15.55;8.15;;;;;;;-146.27;55.38;83987.53;5083559;28;20016;-67
2023/04/05 05:23:02;;;;;;;13.88;8.40;;;;;;;-146.27;53.69;83975.47;5078105;28;20028;-68
2023/04/05 05:25:28;;;;;;;18.42;8.57;;;;;;;-146.27;53.71;83933.28;5078746;28;20044;-68
2023/04/05 05:27:53;;;;;;;12.65;7.82;;;;;;;-146.27;52.90;83943.31;5075092;28;20081;-68
2023/04/05 05:30:19;;;;;;;16.23;8.57;;;;;;;-146.27;53.26;83935.28;5081675;28;20396;-67
2023/04/05 05:32:45;;;;;;;18.90;8.48;;;;;;;-146.27;53.06;83903.13;5077794;28;20096;-67
2023/04/05 05:35:11;;;;;;;20.92;9.30;;;;;;;-146.27;54.20;83925.22;5075692;28;20192;-68
2023/04/05 05:37:36;;;;;;;15.07;8.27;;;;;;;-146.27;53.21;83959.41;5085147;28;20020;-68
2023/04/05 05:40:04;;;;;;;14.82;8.98;;;;;;;-146.27;53.12;83909.16;5089930;28;20528;-69
2023/04/05 05:42:31;;;;;;;12.90;8.15;;;;;;;-146.27;52.76;83895.09;5090699;28;20052;-68
2023/04/05 05:44:57;;;;;;;14.55;8.30;;;;;;;-146.27;53.18;83927.25;5082710;28;20028;-68
2023/04/05 05:47:22;;;;;;;13.10;8.07;;;;;;;-146.27;52.74;83901.13;5085570;28;20043;-68
2023/04/05 05:49:48;;;;;;;14.90;8.60;;;;;;;-146.27;52.97;83895.09;5085894;28;20032;-69
2023/04/05 05:52:14;;;;;;;14.32;8.48;;;;;;;-146.27;52.88;83885.03;5091421;28;20715;-68
2023/04/05 05:54:39;;;;;;;16.52;8.90;;;;;;;-146.27;53.37;83915.19;5084000;28;20024;-68
2023/04/05 05:57:05;;;;;;;17.23;8.52;;;;;;;-146.27;54.40;83919.19;5089977;28;20026;-69
2023/04/05 05:59:30;;;;;;;15.63;8.27;;;;;;;-146.27;53.40;83862.94;5096034;28;20119;-68
2023/04/05 06:01:56;;;;;;;20.77;8.90;;;;;;;-146.27;53.46;83866.97;5086400;28;20039;-66
2023/04/05 06:04:21;;;;;;;15.85;9.48;;;;;;;-146.27;53.47;83866.97;5089599;28;20027;-67
2023/04/05 06:06:46;;;;;;;20.63;9.15;;;;;;;-146.27;53.57;83868.97;5077340;28;20036;-68
2023/04/05 06:09:14;;;;;;;14.57;8.15;;;;;;;-146.27;53.74;83842.84;5079185;28;20036;-67
2023/04/05 06:11:39;;;;;;;16.63;9.50;;;;;;;-146.27;53.63;83830.78;5087760;28;20044;-70
2023/04/05 06:14:05;;;;;;;17.23;8.20;;;;;;;-146.27;53.12;83810.69;5087441;28;20028;-69
2023/04/05 06:16:30;;;;;;;14.25;8.90;;;;;;;-146.27;52.59;83822.75;5087987;28;20055;-67
2023/04/05 06:18:56;;;;;;;14.80;8.80;;;;;;;-146.27;52.00;83806.66;5085947;28;20028;-68
2023/04/05 06:21:22;;;;;;;19.13;9.52;;;;;;;-146.27;51.80;83754.44;5087060;28;20140;-67
2023/04/05 06:23:47;;;;;;;12.80;8.60;;;;;;;-146.27;51.78;83784.56;5091493;28;20033;-67
2023/04/05 06:26:19;;;;;;;14.88;9.40;;;;;;;-146.27;52.12;83738.34;5088718;28;20460;-67
2023/04/05 06:28:48;;;;;;;15.85;9.68;;;;;;;-146.27;52.23;83742.38;5083904;28;20067;-68
2023/04/05 06:31:19;;;;;;;21.27;10.93;;;;;;;-146.27;52.28;83726.28;5083642;28;20081;-67
2023/04/05 06:33:45;;;;;;;26.98;12.25;;;;;;;-146.27;51.49;83670.03;5089584;28;20040;-68
2023/04/05 06:36:11;;;;;;;22.05;11.07;;;;;;;-146.27;51.08;83698.16;5089556;28;20361;-68
2023/04/05 06:38:36;;;;;;;24.25;12.73;;;;;;;-146.27;51.09;83617.78;5084118;28;20020;-69
2023/04/05 06:41:02;;;;;;;20.05;10.80;;;;;;;-146.27;51.38;83702.19;5086916;28;20016;-69
2023/04/05 06:43:28;;;;;;;21.80;12.27;;;;;;;-146.27;53.14;83585.63;5084501;28;20024;-68
2023/04/05 06:45:57;;;;;;;19.65;12.05;;;;;;;-146.27;52.63;83682.09;5087447;28;20027;-69
2023/04/05 06:48:23;;;;;;;16.13;10.50;;;;;;;-146.27;51.75;83625.81;5088382;28;20028;-67
2023/04/05 06:51:06;;;;;;;18.67;10.27;;;;;;;-146.27;50.14;83581.59;5083377;28;20023;-68
2023/04/05 06:53:31;;;;;;;17.43;10.63;;;;;;;-146.27;50.14;83589.66;5094888;28;20085;-67
2023/04/05 06:55:58;;;;;;;14.25;9.30;;;;;;;-146.27;48.50;83533.38;5082163;28;20102;-67
2023/04/05 06:58:25;;;;;;;19.60;9.77;;;;;;;-146.27;47.03;83479.13;5096201;28;20024;-67
2023/04/05 07:00:51;;;;;;;17.92;10.48;;;;;;;-146.27;45.86;83483.16;5084405;28;20364;-66
2023/04/05 07:03:17;;;;;;;17.35;9.82;;;;;;;-146.27;44.63;83505.25;5077589;28;20032;-67
2023/04/05 07:06:09;;;;;;;16.65;9.68;;;;;;;-146.27;44.38;83449.00;5082116;28;20032;-67
2023/04/05 07:08:34;;;;;;;15.23;9.80;;;;;;;-146.27;43.68;83489.19;5092354;28;20047;-68
2023/04/05 07:10:59;;;;;;;18.25;9.57;;;;;;;-146.27;43.64;83461.06;5074633;28;20113;-68
2023/04/05 07:13:25;;;;;;;25.95;9.20;;;;;;;-146.27;43.00;83400.78;5089700;28;20184;-68
2023/04/05 07:15:51;;;;;;;16.88;9.35;;;;;;;-146.27;42.24;83410.81;5101584;28;20028;-67
2023/04/05 07:18:18;;;;;;;15.85;9.45;;;;;;;-146.27;41.87;83390.72;5096755;28;20023;-67
2023/04/05 07:20:51;;;;;;;18.52;9.77;;;;;;;-146.27;41.70;83424.88;5087416;28;20092;-68
2023/04/05 07:23:16;;;;;;;14.30;9.10;;;;;;;-146.27;41.10;83346.53;5080014;28;20052;-68
2023/04/05 07:25:42;;;;;;;13.85;7.32;;;;;;;-146.27;41.22;83380.69;5083380;28;20028;-67
2023/04/05 07:28:08;;;;;;;17.70;8.32;;;;;;;-146.27;40.89;83332.44;5081730;28;20110;-67
2023/04/05 07:30:35;;;;;;;13.07;8.70;;;;;;;-146.27;40.87;83312.34;5089931;27;20035;-67
2023/04/05 07:33:01;;;;;;;18.25;8.65;;;;;;;-146.27;40.59;83330.44;5085463;28;20043;-67
2023/04/05 07:35:27;;;;;;;16.73;8.38;;;;;;;-146.27;39.78;83318.38;5082540;28;20024;-67
2023/04/05 07:37:52;;;;;;;13.88;8.23;;;;;;;-146.27;39.65;83292.28;5076595;28;20028;-67
2023/04/05 07:40:18;;;;;;;14.05;8.45;;;;;;;-146.27;38.88;83252.09;5081390;28;20043;-67
2023/04/05 07:42:43;;;;;;;14.57;8.05;;;;;;;-146.27;38.78;83240.03;5088972;28;20048;-67
2023/04/05 07:45:09;;;;;;;12.23;8.10;;;;;;;-146.27;38.63;83219.94;5085847;28;20498;-68
2023/04/05 07:47:35;;;;;;;15.43;8.10;;;;;;;-146.27;38.08;83183.78;5083959;28;20047;-68
2023/04/05 07:50:00;;;;;;;14.98;8.13;;;;;;;-146.27;38.18;83260.13;5082450;28;20455;-68
2023/04/05 07:52:26;;;;;;;12.82;8.23;;;;;;;-146.27;37.85;83227.97;5088398;28;20069;-72
2023/04/05 07:54:51;;;;;;;22.33;8.50;;;;;;;-146.27;38.43;83207.88;5078708;28;20409;-72
2023/04/05 07:57:17;;;;;;;14.38;7.63;;;;;;;-146.27;37.56;83111.44;5080810;28;20389;-72
2023/04/05 07:59:43;;;;;;;14.70;7.95;;;;;;;-146.27;37.71;83155.63;5083518;28;20044;-72
2023/04/05 08:02:09;;;;;;;17.63;7.65;;;;;;;-146.27;37.71;83081.31;5078382;28;20020;-72
2023/04/05 08:04:34;;;;;;;13.82;8.95;;;;;;;-146.27;37.67;83147.59;5099207;28;20431;-72
2023/04/05 08:07:00;;;;;;;15.45;7.93;;;;;;;-146.27;38.03;83067.25;5076947;28;20081;-73
2023/04/05 08:09:25;;;;;;;13.15;8.88;;;;;;;-146.27;37.89;83095.38;5092814;28;20072;-73
2023/04/05 08:11:50;;;;;;;15.73;7.55;;;;;;;-146.27;37.35;83077.28;5082952;28;20036;-70
2023/04/05 08:14:16;;;;;;;14.65;7.78;;;;;;;-146.27;37.36;83141.56;5078705;28;20032;-70
2023/04/05 08:16:42;;;;;;;15.88;8.32;;;;;;;-146.27;36.27;83031.06;5077963;28;20190;-70
2023/04/05 08:19:07;;;;;;;11.75;6.90;;;;;;;-146.27;36.72;82994.91;5101408;28;20015;-70
2023/04/05 08:21:33;;;;;;;12.98;8.32;;;;;;;-146.27;37.25;82984.88;5099628;28;20016;-70
2023/04/05 08:23:58;;;;;;;14.93;7.72;;;;;;;-146.27;37.12;82946.69;5093359;28;20104;-73
2023/04/05 08:26:24;;;;;;;13.40;7.90;;;;;;;-146.27;36.16;82896.47;5108606;28;20111;-73
2023/04/05 08:28:50;;;;;;;16.63;7.80;;;;;;;-146.27;35.93;82878.38;5096761;28;20387;-73
2023/04/05 08:31:16;;;;;;;12.07;7.45;;;;;;;-146.27;35.22;82894.47;5091516;28;20028;-73
2023/04/05 08:33:41;;;;;;;15.55;7.80;;;;;;;-146.27;35.57;82838.19;5100406;28;20040;-73
2023/04/05 08:36:08;;;;;;;10.15;6.40;;;;;;;-146.27;34.85;82838.19;5092657;28;20032;-73
2023/04/05 08:38:33;;;;;;;10.77;6.63;;;;;;;-146.27;35.23;82810.06;5090925;28;20364;-71
2023/04/05 08:41:14;;;;;;;17.67;7.10;;;;;;;-146.27;35.28;82745.78;5095784;28;20106;-74
2023/04/05 08:43:51;;;;;;;14.15;6.97;;;;;;;-146.27;34.73;82725.69;5099816;28;20024;-70
2023/04/05 08:46:19;;;;;;;15.07;7.30;;;;;;;-146.27;34.33;82677.47;5109255;28;20098;-72
2023/04/05 08:48:44;;;;;;;12.02;6.85;;;;;;;-146.27;34.39;82661.41;5084508;28;20340;-70
2023/04/05 08:51:10;;;;;;;13.40;7.65;;;;;;;-146.27;34.08;82641.31;5082937;28;20024;-69
2023/04/05 08:53:35;;;;;;;14.13;6.90;;;;;;;-146.27;33.45;82721.69;5098299;28;20056;-70
2023/04/05 08:56:02;;;;;;;13.73;7.18;;;;;;;-146.27;33.28;82675.47;5090794;28;20020;-71
2023/04/05 08:58:29;;;;;;;12.13;6.78;;;;;;;-146.27;34.12;82677.47;5101118;28;20387;-70
2023/04/05 09:00:55;;;;;;;10.68;7.28;;;;;;;-146.27;33.28;82655.38;5076028;28;20048;-71
2023/04/05 09:03:22;;;;;;;12.75;7.45;;;;;;;-146.27;33.19;82655.38;5081290;28;20048;-72
2023/04/05 09:05:50;;;;;;;12.02;6.80;;;;;;;-146.27;32.14;82593.09;5084589;28;20062;-71
2023/04/05 09:08:16;;;;;;;12.75;6.90;;;;;;;-146.27;31.91;82577.03;5090271;28;20396;-71
2023/04/05 09:10:42;;;;;;;13.48;7.30;;;;;;;-146.27;32.84;82567.00;5098684;28;20028;-71
2023/04/05 09:13:08;;;;;;;11.57;6.60;;;;;;;-146.27;31.46;82548.91;5089516;27;20039;-70
2023/04/05 09:15:37;;;;;;;12.52;6.57;;;;;;;-146.27;30.76;82388.22;5093053;28;20498;-70
2023/04/05 09:18:03;;;;;;;18.58;7.50;;;;;;;-146.27;30.88;82392.22;5084138;28;20020;-70
2023/04/05 09:20:28;;;;;;;8.80;6.13;;;;;;;-146.27;29.66;82309.88;5092752;28;20023;-70
2023/04/05 09:22:55;;;;;;;10.57;5.95;;;;;;;-146.27;29.39;82408.28;5105554;28;20031;-70
2023/04/05 09:25:33;;;;;;;7.72;5.85;;;;;;;-146.27;29.38;82285.75;5100976;28;20110;-70
2023/04/05 09:27:59;;;;;;;12.35;6.47;;;;;;;-146.27;29.81;82348.03;5096551;28;20032;-70
2023/04/05 09:30:26;;;;;;;12.80;6.50;;;;;;;-146.27;32.49;82426.38;5108600;28;20383;-70
2023/04/05 09:32:53;;;;;;;10.95;6.60;;;;;;;-146.27;31.02;82263.66;5092124;28;20040;-70
2023/04/05 09:35:27;;;;;;;13.98;6.53;;;;;;;-146.27;30.44;82215.44;5101201;28;20116;-70
2023/04/05 09:37:57;;;;;;;13.82;6.25;;;;;;;-146.27;31.42;82261.66;5097349;28;20020;-70
2023/04/05 09:40:23;;;;;;;11.20;6.80;;;;;;;-146.27;29.52;82173.28;5108546;28;20019;-70
2023/04/05 09:42:50;;;;;;;8.80;5.95;;;;;;;-146.27;28.19;82169.25;5097528;28;20023;-70
2023/04/05 09:45:17;;;;;;;12.38;6.82;;;;;;;-146.27;27.59;82203.41;5102188;28;20077;-70
2023/04/05 09:47:53;;;;;;;11.90;6.18;;;;;;;-146.27;28.31;82082.88;5098994;28;20471;-70
2023/04/05 09:50:19;;;;;;;12.02;6.68;;;;;;;-146.27;29.01;81988.47;5087483;28;20429;-70
2023/04/05 09:52:45;;;;;;;11.90;6.43;;;;;;;-146.27;30.15;82344.00;5106556;28;20051;-70
2023/04/05 09:55:11;;;;;;;11.07;6.82;;;;;;;-146.27;30.10;82175.28;5090665;28;20055;-70
2023/04/05 09:57:39;;;;;;;11.23;6.05;;;;;;;-146.27;29.70;82173.28;5099149;28;20024;-70
2023/04/05 10:00:15;;;;;;;11.85;6.40;;;;;;;-146.27;29.72;82056.75;5108036;28;20019;-69
2023/04/05 10:02:41;;;;;;;13.23;6.68;;;;;;;-146.27;29.24;81938.25;5074016;28;20023;-71
2023/04/05 10:05:11;;;;;;;11.20;6.43;;;;;;;-146.27;27.11;81894.06;5085602;28;20459;-71
2023/04/05 10:07:37;;;;;;;10.07;6.55;;;;;;;-146.27;27.90;82042.69;5103539;28;20468;-71
2023/04/05 10:10:03;;;;;;;11.38;6.43;;;;;;;-146.27;26.62;81958.34;5095163;28;20043;-71
2023/04/05 10:12:31;;;;;;;11.55;7.05;;;;;;;-146.27;27.43;81904.13;5106687;28;20017;-69
2023/04/05 10:14:57;;;;;;;12.45;7.07;;;;;;;-146.27;29.32;81849.88;5098017;28;20102;-69
2023/04/05 10:17:30;;;;;;;12.82;6.28;;;;;;;-146.27;27.18;81759.50;5101800;28;20103;-70
2023/04/05 10:20:14;;;;;;;10.27;6.20;;;;;;;-146.27;27.53;81827.78;5096864;28;20433;-70
2023/04/05 10:23:09;;;;;;;14.30;6.75;;;;;;;-146.27;26.55;81767.53;5081044;28;20371;-70
2023/04/05 10:25:40;;;;;;;;;;;;;;;-146.27;27.53;81809.72;5085110;28;20051;-71
2023/04/05 10:28:11;;;;;;;11.75;6.60;;;;;;;-146.27;26.78;81681.16;5112607;28;20011;-70
2023/04/05 10:30:42;;;;;;;11.13;6.82;;;;;;;-146.27;28.17;81717.31;5095353;28;20023;-70
2023/04/05 10:33:15;;;;;;;10.25;5.95;;;;;;;-146.27;26.50;81634.97;5096117;28;20043;-70
2023/04/05 10:36:04;;;;;;;11.68;6.43;;;;;;;-146.27;25.97;81528.53;5108245;28;20099;-70
2023/04/05 10:38:41;;;;;;;10.18;6.57;;;;;;;-146.27;25.71;81564.69;5098501;27;20031;-70
2023/04/05 10:41:15;;;;;;;12.23;8.10;;;;;;;-146.27;26.29;81604.84;5107264;28;20023;-71
2023/04/05 10:43:42;;;;;;;12.52;7.00;;;;;;;-146.27;26.83;81709.28;5102195;28;20043;-71
2023/04/05 10:46:09;;;;;;;12.90;7.38;;;;;;;-146.27;26.70;81586.78;5111609;28;20024;-71
2023/04/05 10:49:02;;;;;;;15.65;6.78;;;;;;;-146.27;26.73;81647.03;5097736;28;20038;-71
2023/04/05 10:51:28;;;;;;;8.57;6.55;;;;;;;-146.27;26.92;81476.31;5099160;28;20047;-70
2023/04/05 10:53:55;;;;;;;10.15;6.97;;;;;;;-146.27;25.04;81239.34;5109866;28;20075;-70
2023/04/05 10:56:21;;;;;;;15.23;7.25;;;;;;;-146.27;25.79;81552.63;5098041;28;20442;-70
2023/04/05 10:58:49;;;;;;;12.55;7.85;;;;;;;-146.27;26.11;81468.28;5107834;28;20024;-70
2023/04/05 11:01:17;;;;;;;11.35;7.72;;;;;;;-146.27;26.09;81691.22;5102674;28;20479;-70
2023/04/05 11:03:50;;;;;;;14.05;7.20;;;;;;;-146.27;26.90;81412.03;5099382;28;20106;-70
2023/04/05 11:06:28;;;;;;;14.18;7.30;;;;;;;-146.27;25.04;81345.78;5087325;28;20028;-71
2023/04/05 11:08:57;;;;;;;9.65;6.45;;;;;;;-146.27;27.96;81385.94;5085689;28;20024;-70
2023/04/05 11:11:25;;;;;;;13.25;7.60;;;;;;;-146.27;25.19;81201.19;5083897;28;20028;-70